createdAt,value
2022-10-22T00:02:23.492Z,62.05
2022-10-22T00:04:50.620Z,62.15
2022-10-22T00:07:18.007Z,62.18
2022-10-22T00:09:44.557Z,62.25
2022-10-22T00:12:11.558Z,62.06
2022-10-22T00:14:38.276Z,62.26
2022-10-22T00:17:07.009Z,62.34
2022-10-22T00:19:38.997Z,62.34
2022-10-22T00:22:06.625Z,62.42
2022-10-22T00:24:34.378Z,62.52
2022-10-22T00:27:01.690Z,62.59
2022-10-22T00:29:28.355Z,62.48
2022-10-22T00:34:26.882Z,62.58
2022-10-22T00:36:53.915Z,62.46
2022-10-22T00:39:23.051Z,62.52
2022-10-22T00:41:51.210Z,62.67
2022-10-22T00:44:55.769Z,62.77
2022-10-22T00:47:24.363Z,62.71
2022-10-22T00:49:52.710Z,62.64
2022-10-22T00:52:19.938Z,62.67
2022-10-22T00:54:46.506Z,62.62
2022-10-22T00:57:13.032Z,62.64
2022-10-22T00:59:40.044Z,62.63
2022-10-22T01:02:06.646Z,62.73
2022-10-22T01:04:33.076Z,62.89
2022-10-22T01:07:00.146Z,62.71
2022-10-22T01:09:42.238Z,62.62
2022-10-22T01:12:19.175Z,62.63
2022-10-22T01:14:48.552Z,62.56
2022-10-22T01:17:24.379Z,62.72
2022-10-22T01:20:06.121Z,62.78
2022-10-22T01:22:39.908Z,62.72
2022-10-22T01:25:31.925Z,62.62
2022-10-22T01:28:11.231Z,62.66
2022-10-22T01:30:39.786Z,62.79
2022-10-22T01:33:09.800Z,62.71
2022-10-22T01:35:43.270Z,62.67
2022-10-22T01:38:16.421Z,62.55
2022-10-22T01:40:43.685Z,62.63
2022-10-22T01:43:10.946Z,62.73
2022-10-22T01:45:45.987Z,62.75
2022-10-22T01:48:34.557Z,62.75
2022-10-22T01:51:20.889Z,62.83
2022-10-22T01:54:02.050Z,62.81
2022-10-22T01:57:06.538Z,62.86
2022-10-22T01:59:44.892Z,62.96
2022-10-22T02:02:29.581Z,63.21
2022-10-22T02:05:08.018Z,63.13
2022-10-22T02:07:44.247Z,63.13
2022-10-22T02:10:12.213Z,63.08
2022-10-22T02:12:42.158Z,63.01
2022-10-22T02:15:11.448Z,63.08
2022-10-22T02:17:39.251Z,63.11
2022-10-22T02:20:12.160Z,63.07
2022-10-22T02:22:39.565Z,62.91
2022-10-22T02:25:07.337Z,62.90
2022-10-22T02:28:15.023Z,62.75
2022-10-22T02:30:45.998Z,62.74
2022-10-22T02:33:19.521Z,62.82
2022-10-22T02:35:47.882Z,62.77
2022-10-22T02:38:14.702Z,62.97
2022-10-22T02:40:41.761Z,62.91
2022-10-22T02:43:08.271Z,63.07
2022-10-22T02:45:35.474Z,63.29
2022-10-22T02:48:03.929Z,63.06
2022-10-22T02:50:30.607Z,63.15
2022-10-22T02:52:57.115Z,63.21
2022-10-22T02:55:23.529Z,63.25
2022-10-22T02:57:50.209Z,63.29
2022-10-22T03:00:17.238Z,63.17
2022-10-22T03:02:43.668Z,63.30
2022-10-22T03:05:10.417Z,63.29
2022-10-22T03:07:36.873Z,63.49
2022-10-22T03:10:03.770Z,63.42
2022-10-22T03:12:30.312Z,63.40
2022-10-22T03:14:56.728Z,63.35
2022-10-22T03:17:23.989Z,63.25
2022-10-22T03:19:50.440Z,63.20
2022-10-22T03:22:25.902Z,63.26
2022-10-22T03:24:55.152Z,63.31
2022-10-22T03:27:22.625Z,63.41
2022-10-22T03:29:52.018Z,63.46
2022-10-22T03:32:18.552Z,63.42
2022-10-22T03:34:45.081Z,63.41
2022-10-22T03:37:11.968Z,63.39
2022-10-22T03:39:38.712Z,63.36
2022-10-22T03:42:06.845Z,63.38
2022-10-22T03:44:37.994Z,63.66
2022-10-22T03:47:04.477Z,63.55
2022-10-22T03:49:30.886Z,63.56
2022-10-22T03:51:57.902Z,63.67
2022-10-22T03:54:24.474Z,63.69
2022-10-22T03:56:50.911Z,63.63
2022-10-22T03:59:17.405Z,63.74
2022-10-22T04:01:44.060Z,63.66
2022-10-22T04:04:10.513Z,63.55
2022-10-22T04:06:36.966Z,63.52
2022-10-22T04:09:03.639Z,63.48
2022-10-22T04:11:30.092Z,63.55
2022-10-22T04:13:56.515Z,63.67
2022-10-22T04:16:25.073Z,63.66
2022-10-22T04:18:54.004Z,63.67
2022-10-22T04:21:20.454Z,63.62
2022-10-22T04:23:49.009Z,63.73
2022-10-22T04:26:16.672Z,63.68
2022-10-22T04:28:44.128Z,63.74
2022-10-22T04:31:16.217Z,63.86
2022-10-22T04:33:42.678Z,63.89
2022-10-22T04:36:14.154Z,64.05
2022-10-22T04:38:42.587Z,64.02
2022-10-22T04:41:18.264Z,63.90
2022-10-22T04:43:45.546Z,63.80
2022-10-22T04:46:13.113Z,63.81
2022-10-22T04:48:41.566Z,63.81
2022-10-22T04:51:11.344Z,63.73
2022-10-22T04:53:39.746Z,63.73
2022-10-22T04:59:30.818Z,63.80
2022-10-22T05:01:58.655Z,63.72
2022-10-22T05:04:26.699Z,63.82
2022-10-22T05:06:54.542Z,63.91
2022-10-22T05:09:22.490Z,64.10
2022-10-22T05:11:52.810Z,64.04
2022-10-22T05:14:23.242Z,63.99
2022-10-22T05:16:51.812Z,63.90
2022-10-22T05:19:26.475Z,63.87
2022-10-22T05:21:56.983Z,64.22
2022-10-22T05:24:26.427Z,64.13
2022-10-22T05:26:57.433Z,64.29
2022-10-22T05:29:25.970Z,64.24
2022-10-22T05:31:53.817Z,64.14
2022-10-22T05:34:21.686Z,64.19
2022-10-22T05:36:49.496Z,64.26
2022-10-22T05:39:17.307Z,64.36
2022-10-22T05:41:45.117Z,64.25
2022-10-22T05:44:14.132Z,64.19
2022-10-22T05:46:43.529Z,64.16
2022-10-22T05:49:14.616Z,64.18
2022-10-22T05:51:43.048Z,64.40
2022-10-22T05:54:22.334Z,64.36
2022-10-22T05:56:50.248Z,64.37
2022-10-22T05:59:18.465Z,64.40
2022-10-22T06:01:46.518Z,64.39
2022-10-22T06:04:16.224Z,64.38
2022-10-22T06:06:47.291Z,64.43
2022-10-22T06:09:29.178Z,64.61
2022-10-22T06:11:58.236Z,64.52
2022-10-22T06:14:26.791Z,64.58
2022-10-22T06:16:55.509Z,64.38
2022-10-22T06:19:26.835Z,64.34
2022-10-22T06:21:54.738Z,64.48
2022-10-22T06:24:22.637Z,64.51
2022-10-22T06:26:51.720Z,64.37
2022-10-22T06:29:19.828Z,64.37
2022-10-22T06:31:48.242Z,64.46
2022-10-22T06:34:18.922Z,64.56
2022-10-22T06:36:47.600Z,64.47
2022-10-22T06:39:17.160Z,64.45
2022-10-22T06:41:45.731Z,64.64
2022-10-22T06:44:18.193Z,64.45
2022-10-22T06:46:48.973Z,64.53
2022-10-22T06:49:17.246Z,64.75
2022-10-22T06:51:45.493Z,64.72
2022-10-22T06:54:13.265Z,64.79
2022-10-22T06:56:41.158Z,64.85
2022-10-22T06:59:08.980Z,64.85
2022-10-22T07:01:37.745Z,64.73
2022-10-22T07:04:08.965Z,64.91
2022-10-22T07:06:37.217Z,64.92
2022-10-22T07:09:05.108Z,65.09
2022-10-22T07:11:43.072Z,64.92
2022-10-22T07:14:11.944Z,65.20
2022-10-22T07:16:43.048Z,65.30
2022-10-22T07:19:10.733Z,65.07
2022-10-22T07:21:38.862Z,65.08
2022-10-22T07:24:07.138Z,65.28
2022-10-22T07:26:35.367Z,65.20
2022-10-22T07:29:04.186Z,65.27
2022-10-22T07:31:32.045Z,65.33
2022-10-22T07:33:59.873Z,65.76
2022-10-22T07:36:27.799Z,65.52
2022-10-22T07:38:57.968Z,65.51
2022-10-22T07:41:27.215Z,65.59
2022-10-22T07:43:56.291Z,65.59
2022-10-22T07:46:25.076Z,65.64
2022-10-22T07:48:53.065Z,65.59
2022-10-22T07:51:21.627Z,65.50
2022-10-22T07:53:49.623Z,65.57
2022-10-22T07:56:17.728Z,65.55
2022-10-22T07:58:45.618Z,65.56
2022-10-22T08:01:13.428Z,65.61
2022-10-22T08:03:41.233Z,65.54
2022-10-22T08:06:10.596Z,65.67
2022-10-22T08:08:38.593Z,65.57
2022-10-22T08:11:06.634Z,65.70
2022-10-22T08:13:34.649Z,65.72
2022-10-22T08:16:02.679Z,65.60
2022-10-22T08:18:30.494Z,65.53
2022-10-22T08:20:58.443Z,65.66
2022-10-22T08:23:28.714Z,65.63
2022-10-22T08:25:57.527Z,65.62
2022-10-22T08:28:26.115Z,65.65
2022-10-22T08:30:54.177Z,65.72
2022-10-22T08:33:21.978Z,65.80
2022-10-22T08:35:51.207Z,65.61
2022-10-22T08:38:19.903Z,65.73
2022-10-22T08:40:54.091Z,65.80
2022-10-22T08:43:40.667Z,65.95
2022-10-22T08:46:08.522Z,65.83
2022-10-22T08:48:58.156Z,65.86
2022-10-22T08:51:30.817Z,65.74
2022-10-22T08:54:04.573Z,65.78
2022-10-22T08:56:36.673Z,65.92
2022-10-22T08:59:10.417Z,65.98
2022-10-22T09:01:41.892Z,65.97
2022-10-22T09:04:27.218Z,66.01
2022-10-22T09:06:58.450Z,65.99
2022-10-22T09:09:31.616Z,65.93
2022-10-22T09:12:01.238Z,65.99
2022-10-22T09:14:30.038Z,65.92
2022-10-22T09:17:19.487Z,65.87
2022-10-22T09:20:06.523Z,65.75
2022-10-22T09:23:03.027Z,65.70
2022-10-22T09:25:36.777Z,65.70
2022-10-22T09:28:05.170Z,65.62
2022-10-22T09:30:38.716Z,65.73
2022-10-22T09:33:07.086Z,65.66
2022-10-22T09:35:54.866Z,65.47
2022-10-22T09:38:30.271Z,65.15
2022-10-22T09:41:00.298Z,65.19
2022-10-22T09:43:28.157Z,64.99
2022-10-22T09:46:07.699Z,64.93
2022-10-22T09:48:57.661Z,64.83
2022-10-22T09:51:38.594Z,64.67
2022-10-22T09:54:17.649Z,64.75
2022-10-22T09:56:58.599Z,64.74
2022-10-22T09:59:29.754Z,64.93
2022-10-22T10:02:08.386Z,64.84
2022-10-22T10:04:57.794Z,64.56
2022-10-22T10:07:30.178Z,64.63
2022-10-22T10:09:58.554Z,64.74
2022-10-22T10:12:41.074Z,64.71
2022-10-22T10:15:28.067Z,64.68
2022-10-22T10:18:30.275Z,64.84
2022-10-22T10:21:26.188Z,64.48
2022-10-22T10:24:16.518Z,64.05
2022-10-22T10:27:10.591Z,63.61
2022-10-22T10:30:14.190Z,63.10
2022-10-22T10:33:11.377Z,63.31
2022-10-22T10:35:50.150Z,63.68
2022-10-22T10:38:48.678Z,63.79
2022-10-22T10:41:20.188Z,63.92
2022-10-22T10:44:10.620Z,64.03
2022-10-22T10:46:53.522Z,64.17
2022-10-22T10:49:27.130Z,64.28
2022-10-22T10:51:57.932Z,64.37
2022-10-22T10:54:46.739Z,64.24
2022-10-22T10:57:51.501Z,64.33
2022-10-22T11:00:20.791Z,64.51
2022-10-22T11:02:57.628Z,64.35
2022-10-22T11:05:37.991Z,64.33
2022-10-22T11:08:55.415Z,64.41
2022-10-22T11:11:35.738Z,64.41
2022-10-22T11:14:10.522Z,64.59
2022-10-22T11:16:49.666Z,64.36
2022-10-22T11:19:57.796Z,64.40
2022-10-22T11:22:37.120Z,64.36
2022-10-22T11:25:17.616Z,64.34
2022-10-22T11:27:48.978Z,64.50
2022-10-22T11:30:30.548Z,64.53
2022-10-22T11:33:02.878Z,64.52
2022-10-22T11:35:34.249Z,64.46
2022-10-22T11:38:05.382Z,64.62
2022-10-22T11:40:38.465Z,64.84
2022-10-22T11:43:11.472Z,64.73
2022-10-22T11:45:43.363Z,64.64
2022-10-22T11:48:11.114Z,64.66
2022-10-22T11:50:42.744Z,64.82
2022-10-22T11:53:13.579Z,64.61
2022-10-22T11:55:51.387Z,64.54
2022-10-22T11:58:28.399Z,64.42
2022-10-22T12:01:09.885Z,64.30
2022-10-22T12:03:44.074Z,64.17
2022-10-22T12:06:15.797Z,64.15
2022-10-22T12:08:56.777Z,64.31
2022-10-22T12:11:37.389Z,64.44
2022-10-22T12:14:19.971Z,64.41
2022-10-22T12:16:59.346Z,64.51
2022-10-22T12:19:37.902Z,64.67
2022-10-22T12:22:18.185Z,64.91
2022-10-22T12:24:51.898Z,65.03
2022-10-22T12:27:26.428Z,65.20
2022-10-22T12:29:58.513Z,65.33
2022-10-22T12:32:37.460Z,65.23
2022-10-22T12:35:09.380Z,65.22
2022-10-22T12:37:38.251Z,65.31
2022-10-22T12:40:25.971Z,65.45
2022-10-22T12:43:02.249Z,65.70
2022-10-22T12:45:34.278Z,65.57
2022-10-22T12:48:08.130Z,65.76
2022-10-22T12:50:49.582Z,65.90
2022-10-22T12:53:22.341Z,65.91
2022-10-22T12:55:53.079Z,65.84
2022-10-22T12:58:25.676Z,65.84
2022-10-22T13:01:02.053Z,65.93
2022-10-22T13:03:39.689Z,66.05
2022-10-22T13:06:19.614Z,66.03
2022-10-22T13:08:59.623Z,66.09
2022-10-22T13:12:04.558Z,66.05
2022-10-22T13:14:38.148Z,66.15
2022-10-22T13:17:40.322Z,66.14
2022-10-22T13:20:21.598Z,66.17
2022-10-22T13:22:54.738Z,66.12
2022-10-22T13:25:31.040Z,66.16
2022-10-22T13:28:21.531Z,66.29
2022-10-22T13:30:58.454Z,66.30
2022-10-22T13:33:39.094Z,66.35
2022-10-22T13:36:09.041Z,66.45
2022-10-22T13:38:36.827Z,66.64
2022-10-22T13:41:04.980Z,66.65
2022-10-22T13:43:32.968Z,66.88
2022-10-22T13:46:01.589Z,66.93
2022-10-22T13:48:31.032Z,67.01
2022-10-22T13:50:59.066Z,67.12
2022-10-22T13:53:28.599Z,67.02
2022-10-22T13:55:56.897Z,67.00
2022-10-22T13:58:25.249Z,66.89
2022-10-22T14:00:58.961Z,66.81
2022-10-22T14:03:31.771Z,66.90
2022-10-22T14:06:00.359Z,66.80
2022-10-22T14:08:28.831Z,66.73
2022-10-22T14:10:57.043Z,66.69
2022-10-22T14:13:25.356Z,66.60
2022-10-22T14:15:53.261Z,66.73
2022-10-22T14:18:27.407Z,66.85
2022-10-22T14:20:59.881Z,66.81
2022-10-22T14:23:30.629Z,66.91
2022-10-22T14:26:00.332Z,66.92
2022-10-22T14:28:29.647Z,66.94
2022-10-22T14:30:59.663Z,67.03
2022-10-22T14:33:31.951Z,67.18
2022-10-22T14:36:00.918Z,67.17
2022-10-22T14:38:29.625Z,67.26
2022-10-22T14:40:59.561Z,67.25
2022-10-22T14:43:29.837Z,67.23
2022-10-22T14:45:58.303Z,67.19
2022-10-22T14:48:26.232Z,67.24
2022-10-22T14:50:54.648Z,67.21
2022-10-22T14:53:22.620Z,67.20
2022-10-22T14:55:51.657Z,67.27
2022-10-22T14:58:19.623Z,67.25
2022-10-22T15:00:47.507Z,67.22
2022-10-22T15:03:15.411Z,67.26
2022-10-22T15:05:44.987Z,67.23
2022-10-22T15:08:15.065Z,67.29
2022-10-22T15:10:42.937Z,67.50
2022-10-22T15:13:11.104Z,67.32
2022-10-22T15:15:41.918Z,67.43
2022-10-22T15:18:09.762Z,67.37
2022-10-22T15:20:37.854Z,67.25
2022-10-22T15:23:05.734Z,67.28
2022-10-22T15:25:33.543Z,67.23
2022-10-22T15:28:09.189Z,67.39
2022-10-22T15:30:37.698Z,67.41
2022-10-22T15:33:05.787Z,67.45
2022-10-22T15:35:33.732Z,67.39
2022-10-22T15:38:01.565Z,67.47
2022-10-22T15:40:29.509Z,67.40
2022-10-22T15:42:57.306Z,67.60
2022-10-22T15:45:25.861Z,67.66
2022-10-22T15:47:53.787Z,67.73
2022-10-22T15:50:21.758Z,67.89
2022-10-22T15:52:49.617Z,67.86
2022-10-22T15:55:17.901Z,67.88
2022-10-22T15:57:46.016Z,67.98
2022-10-22T16:00:14.492Z,68.12
2022-10-22T16:02:43.956Z,68.07
2022-10-22T16:05:11.845Z,68.21
2022-10-22T16:07:39.991Z,68.21
2022-10-22T16:10:09.463Z,68.24
2022-10-22T16:12:37.317Z,68.14
2022-10-22T16:15:05.541Z,68.18
2022-10-22T16:17:33.511Z,68.32
2022-10-22T16:20:01.504Z,68.34
2022-10-22T16:22:29.391Z,68.38
2022-10-22T16:24:57.196Z,68.39
2022-10-22T16:27:25.351Z,68.36
2022-10-22T16:29:53.129Z,68.46
2022-10-22T16:32:20.970Z,68.51
2022-10-22T16:34:48.845Z,68.33
2022-10-22T16:37:16.663Z,68.32
2022-10-22T16:39:44.483Z,68.37
2022-10-22T16:42:12.282Z,68.36
2022-10-22T16:44:40.105Z,68.32
2022-10-22T16:47:07.890Z,68.19
2022-10-22T16:49:35.677Z,68.26
2022-10-22T16:52:03.588Z,68.31
2022-10-22T16:54:31.482Z,68.23
2022-10-22T17:00:23.148Z,68.39
2022-10-22T17:02:53.294Z,68.26
2022-10-22T17:05:22.282Z,68.29
2022-10-22T17:07:50.556Z,68.23
2022-10-22T17:10:19.840Z,68.30
2022-10-22T17:12:48.955Z,68.38
2022-10-22T17:15:17.134Z,68.35
2022-10-22T17:17:48.456Z,68.30
2022-10-22T17:20:16.331Z,68.37
2022-10-22T17:22:44.375Z,68.40
2022-10-22T17:25:19.623Z,68.34
2022-10-22T17:27:48.372Z,68.39
2022-10-22T17:30:22.035Z,68.48
2022-10-22T17:32:54.104Z,68.54
2022-10-22T17:35:23.501Z,68.62
2022-10-22T17:37:51.365Z,68.73
2022-10-22T17:40:19.314Z,68.71
2022-10-22T17:42:47.609Z,68.76
2022-10-22T17:45:16.001Z,68.87
2022-10-22T17:47:44.071Z,68.94
2022-10-22T17:50:12.025Z,68.86
2022-10-22T17:52:40.030Z,68.95
2022-10-22T17:55:08.660Z,69.02
2022-10-22T17:57:36.497Z,69.08
2022-10-22T18:00:04.996Z,69.25
2022-10-22T18:02:32.851Z,69.11
2022-10-22T18:05:00.654Z,69.19
2022-10-22T18:07:28.555Z,69.15
2022-10-22T18:09:56.598Z,69.13
2022-10-22T18:12:24.397Z,69.23
2022-10-22T18:14:52.295Z,69.43
2022-10-22T18:17:20.277Z,69.45
2022-10-22T18:19:49.301Z,69.47
2022-10-22T18:22:17.141Z,69.52
2022-10-22T18:24:44.990Z,69.40
2022-10-22T18:27:13.056Z,69.32
2022-10-22T18:29:40.858Z,69.35
2022-10-22T18:32:13.160Z,69.45
2022-10-22T18:34:41.367Z,69.51
2022-10-22T18:37:09.550Z,69.55
2022-10-22T18:39:37.364Z,69.73
2022-10-22T18:42:07.151Z,69.91
2022-10-22T18:44:35.964Z,70.08
2022-10-22T18:47:03.914Z,70.15
2022-10-22T18:49:31.722Z,70.33
2022-10-22T18:51:59.625Z,70.38
2022-10-22T18:54:27.489Z,70.35
2022-10-22T18:57:00.571Z,70.32
2022-10-22T18:59:30.432Z,70.27
2022-10-22T19:01:59.703Z,70.33
2022-10-22T19:04:33.227Z,70.41
2022-10-22T19:07:01.202Z,70.50
2022-10-22T19:09:31.941Z,70.54
2022-10-22T19:11:59.973Z,70.60
2022-10-22T19:14:28.492Z,70.63
2022-10-22T19:16:56.442Z,70.69
2022-10-22T19:19:24.787Z,70.61
2022-10-22T19:21:52.884Z,70.55
2022-10-22T19:24:21.066Z,70.67
2022-10-22T19:26:50.086Z,70.74
2022-10-22T19:29:20.934Z,70.76
2022-10-22T19:31:51.091Z,70.68
2022-10-22T19:34:19.853Z,70.47
2022-10-22T19:36:47.766Z,70.65
2022-10-22T19:39:17.252Z,70.67
2022-10-22T19:41:45.446Z,70.57
2022-10-22T19:44:13.299Z,70.75
2022-10-22T19:46:42.344Z,70.74
2022-10-22T19:49:11.306Z,70.78
2022-10-22T19:51:40.185Z,70.77
2022-10-22T19:54:18.350Z,70.73
2022-10-22T19:56:47.575Z,70.88
2022-10-22T19:59:16.706Z,70.84
2022-10-22T20:01:44.520Z,70.87
2022-10-22T20:04:15.880Z,70.85
2022-10-22T20:06:44.806Z,70.79
2022-10-22T20:09:13.188Z,70.77
2022-10-22T20:11:41.328Z,70.94
2022-10-22T20:14:09.214Z,71.02
2022-10-22T20:16:37.378Z,71.16
2022-10-22T20:19:06.742Z,71.20
2022-10-22T20:21:35.538Z,71.42
2022-10-22T20:24:04.407Z,71.17
2022-10-22T20:26:32.318Z,71.30
2022-10-22T20:29:00.365Z,71.39
2022-10-22T20:31:29.702Z,71.28
2022-10-22T20:33:59.690Z,71.32
2022-10-22T20:36:28.962Z,71.19
2022-10-22T20:39:03.450Z,71.26
2022-10-22T20:41:34.041Z,71.07
2022-10-22T20:44:01.939Z,71.04
2022-10-22T20:46:32.036Z,71.11
2022-10-22T20:49:02.795Z,71.14
2022-10-22T20:51:31.516Z,71.12
2022-10-22T20:53:59.554Z,71.12
2022-10-22T20:56:28.269Z,71.02
2022-10-22T20:59:04.856Z,70.97
2022-10-22T21:01:34.354Z,71.04
2022-10-22T21:04:02.207Z,71.10
2022-10-22T21:06:30.095Z,71.01
2022-10-22T21:08:58.072Z,70.97
2022-10-22T21:11:26.306Z,71.10
2022-10-22T21:13:54.111Z,71.05
2022-10-22T21:16:22.010Z,71.07
2022-10-22T21:18:50.024Z,71.14
2022-10-22T21:21:19.142Z,71.20
2022-10-22T21:23:47.199Z,71.18
2022-10-22T21:26:15.029Z,71.11
2022-10-22T21:28:42.901Z,71.09
2022-10-22T21:31:18.679Z,71.01
2022-10-22T21:33:46.718Z,70.98
2022-10-22T21:36:16.989Z,71.17
2022-10-22T21:38:47.100Z,71.23
2022-10-22T21:41:17.041Z,71.38
2022-10-22T21:43:45.695Z,71.36
2022-10-22T21:46:16.594Z,71.30
2022-10-22T21:48:45.637Z,71.27
2022-10-22T21:51:16.436Z,71.27
2022-10-22T21:53:45.612Z,71.23
2022-10-22T21:56:18.651Z,71.38
2022-10-22T21:58:46.611Z,71.43
2022-10-22T22:01:15.422Z,71.51
2022-10-22T22:03:45.982Z,71.58
2022-10-22T22:06:15.321Z,71.73
2022-10-22T22:08:45.196Z,71.64
2022-10-22T22:11:19.743Z,71.57
2022-10-22T22:13:48.811Z,71.56
2022-10-22T22:16:25.431Z,71.46
2022-10-22T22:19:01.716Z,71.49
2022-10-22T22:21:29.865Z,71.58
2022-10-22T22:23:58.452Z,71.59
2022-10-22T22:26:29.873Z,71.56
2022-10-22T22:28:59.608Z,71.56
2022-10-22T22:31:30.373Z,71.53
2022-10-22T22:34:10.458Z,71.53
2022-10-22T22:36:41.215Z,71.55
2022-10-22T22:39:12.648Z,71.73
2022-10-22T22:41:42.348Z,71.75
2022-10-22T22:44:10.358Z,71.73
2022-10-22T22:46:38.524Z,71.74
2022-10-22T22:49:07.037Z,71.95
2022-10-22T22:51:34.858Z,72.00
2022-10-22T22:54:02.808Z,71.90
2022-10-22T22:56:34.335Z,71.90
2022-10-22T22:59:03.896Z,71.87
2022-10-22T23:01:37.395Z,71.99
2022-10-22T23:04:12.085Z,71.95
2022-10-22T23:06:40.194Z,71.85
2022-10-22T23:09:10.426Z,71.75
2022-10-22T23:11:39.811Z,71.75
2022-10-22T23:14:11.822Z,71.71
2022-10-22T23:16:44.231Z,71.89
2022-10-22T23:19:14.654Z,72.01
2022-10-22T23:21:47.730Z,72.03
2022-10-22T23:24:17.842Z,72.06
2022-10-22T23:26:48.051Z,71.90
2022-10-22T23:29:19.594Z,71.88
2022-10-22T23:31:48.757Z,71.92
2022-10-22T23:36:53.062Z,71.75
2022-10-22T23:39:23.901Z,71.66
2022-10-22T23:41:53.464Z,71.66
2022-10-22T23:44:22.867Z,71.72
2022-10-22T23:46:51.224Z,71.80
2022-10-22T23:49:19.333Z,71.91
2022-10-22T23:51:48.027Z,71.96
2022-10-22T23:54:18.350Z,71.94
2022-10-22T23:56:46.682Z,71.96
